createdAt,value
2023-02-04T00:00:26.676Z,6.87
2023-02-04T00:02:54.136Z,6.87
2023-02-04T00:05:22.811Z,6.84
2023-02-04T00:07:50.666Z,6.83
2023-02-04T00:10:19.983Z,6.81
2023-02-04T00:12:50.548Z,6.82
2023-02-04T00:15:19.699Z,6.82
2023-02-04T00:17:49.738Z,6.81
2023-02-04T00:20:19.850Z,6.80
2023-02-04T00:22:53.185Z,6.81
2023-02-04T00:25:26.512Z,6.78
2023-02-04T00:27:54.826Z,6.77
2023-02-04T00:30:31.707Z,6.76
2023-02-04T00:33:00.334Z,6.76
2023-02-04T00:35:28.483Z,6.74
2023-02-04T00:37:56.734Z,6.74
2023-02-04T00:40:27.071Z,6.74
2023-02-04T00:42:55.179Z,6.73
2023-02-04T00:45:24.251Z,6.66
2023-02-04T00:47:52.786Z,6.66
2023-02-04T00:50:20.524Z,6.60
2023-02-04T00:52:53.965Z,6.54
2023-02-04T00:55:24.992Z,6.54
2023-02-04T00:57:54.480Z,6.52
2023-02-04T01:00:22.681Z,6.51
2023-02-04T01:02:50.160Z,6.49
2023-02-04T01:05:17.646Z,6.46
2023-02-04T01:07:51.889Z,6.41
2023-02-04T01:10:22.925Z,6.34
2023-02-04T01:12:52.930Z,6.28
2023-02-04T01:15:20.662Z,6.19
2023-02-04T01:17:50.969Z,6.17
2023-02-04T01:20:19.948Z,6.10
2023-02-04T01:22:49.378Z,6.04
2023-02-04T01:25:26.654Z,5.99
2023-02-04T01:27:57.109Z,5.95
2023-02-04T01:30:26.738Z,5.91
2023-02-04T01:33:02.354Z,5.84
2023-02-04T01:35:33.908Z,5.82
2023-02-04T01:38:11.546Z,5.78
2023-02-04T01:40:40.692Z,5.73
2023-02-04T01:43:10.898Z,5.69
2023-02-04T01:45:43.464Z,5.65
2023-02-04T01:48:20.577Z,5.62
2023-02-04T01:51:17.370Z,5.56
2023-02-04T01:53:45.390Z,5.53
2023-02-04T01:56:23.540Z,5.51
2023-02-04T01:59:01.304Z,5.49
2023-02-04T02:01:49.081Z,5.43
2023-02-04T02:04:33.925Z,5.39
2023-02-04T02:07:19.969Z,5.40
2023-02-04T02:09:47.360Z,5.38
2023-02-04T02:12:15.187Z,5.38
2023-02-04T02:14:43.719Z,5.42
2023-02-04T02:17:20.043Z,5.47
2023-02-04T02:19:48.927Z,5.50
2023-02-04T02:23:14.523Z,5.54
2023-02-04T02:25:42.651Z,5.55
2023-02-04T02:28:26.249Z,5.59
2023-02-04T02:30:55.228Z,5.59
2023-02-04T02:33:23.932Z,5.62
2023-02-04T02:35:52.768Z,5.61
2023-02-04T02:38:20.967Z,5.66
2023-02-04T02:40:57.974Z,5.65
2023-02-04T02:43:30.217Z,5.67
2023-02-04T02:46:02.732Z,5.66
2023-02-04T02:48:34.811Z,5.68
2023-02-04T02:51:04.746Z,5.67
2023-02-04T02:53:33.745Z,5.67
2023-02-04T02:56:09.146Z,5.66
2023-02-04T02:58:49.939Z,5.64
2023-02-04T03:01:18.999Z,5.59
2023-02-04T03:04:06.454Z,5.53
2023-02-04T03:06:36.082Z,5.50
2023-02-04T03:09:06.833Z,5.44
2023-02-04T03:11:36.517Z,5.39
2023-02-04T03:14:09.674Z,5.33
2023-02-04T03:16:41.214Z,5.30
2023-02-04T03:19:13.906Z,5.27
2023-02-04T03:21:43.110Z,5.22
2023-02-04T03:24:11.361Z,5.22
2023-02-04T03:26:41.212Z,5.17
2023-02-04T03:29:18.087Z,5.17
2023-02-04T03:31:54.640Z,5.14
2023-02-04T03:34:34.747Z,5.14
2023-02-04T03:39:50.729Z,5.14
2023-02-04T03:42:19.431Z,5.16
2023-02-04T03:44:52.689Z,5.18
2023-02-04T03:47:28.208Z,5.23
2023-02-04T03:50:06.739Z,5.26
2023-02-04T03:52:36.211Z,5.31
2023-02-04T03:55:06.532Z,5.33
2023-02-04T03:57:36.520Z,5.36
2023-02-04T04:00:09.399Z,5.42
2023-02-04T04:02:44.941Z,5.44
2023-02-04T04:08:01.286Z,5.46
2023-02-04T04:10:31.781Z,5.45
2023-02-04T04:13:02.761Z,5.42
2023-02-04T04:15:33.617Z,5.47
2023-02-04T04:18:03.342Z,5.43
2023-02-04T04:20:33.545Z,5.43
2023-02-04T04:23:04.771Z,5.42
2023-02-04T04:25:37.180Z,5.38
2023-02-04T04:28:09.023Z,5.42
2023-02-04T04:30:45.990Z,5.40
2023-02-04T04:33:18.370Z,5.42
2023-02-04T04:35:53.351Z,5.42
2023-02-04T04:38:31.188Z,5.41
2023-02-04T04:41:00.796Z,5.40
2023-02-04T04:43:28.948Z,5.40
2023-02-04T04:45:56.275Z,5.38
2023-02-04T04:48:26.190Z,5.38
2023-02-04T04:50:55.354Z,5.39
2023-02-04T04:53:27.039Z,5.38
2023-02-04T04:56:02.088Z,5.39
2023-02-04T04:58:31.774Z,5.42
2023-02-04T05:01:01.566Z,5.46
2023-02-04T05:03:30.784Z,5.47
2023-02-04T05:05:59.234Z,5.48
2023-02-04T05:08:27.827Z,5.53
2023-02-04T05:10:57.467Z,5.53
2023-02-04T05:13:25.474Z,5.55
2023-02-04T05:15:53.144Z,5.55
2023-02-04T05:18:23.735Z,5.59
2023-02-04T05:20:59.942Z,5.55
2023-02-04T05:23:35.788Z,5.59
2023-02-04T05:26:05.957Z,5.57
2023-02-04T05:28:41.490Z,5.57
2023-02-04T05:31:11.446Z,5.58
2023-02-04T05:33:39.186Z,5.55
2023-02-04T05:36:20.181Z,5.52
2023-02-04T05:38:53.931Z,5.49
2023-02-04T05:41:25.614Z,5.50
2023-02-04T05:44:05.898Z,5.47
2023-02-04T05:46:35.329Z,5.45
2023-02-04T05:49:04.013Z,5.50
2023-02-04T05:51:33.637Z,5.49
2023-02-04T05:54:02.731Z,5.49
2023-02-04T05:56:31.830Z,5.50
2023-02-04T05:58:59.522Z,5.51
2023-02-04T06:01:32.427Z,5.47
2023-02-04T06:04:05.652Z,5.49
2023-02-04T06:06:43.435Z,5.52
2023-02-04T06:09:19.434Z,5.50
2023-02-04T06:11:58.017Z,5.43
2023-02-04T06:14:30.607Z,5.39
2023-02-04T06:17:08.781Z,5.37
2023-02-04T06:19:47.576Z,5.37
2023-02-04T06:22:19.853Z,5.39
2023-02-04T06:25:25.966Z,5.37
2023-02-04T06:27:55.467Z,5.39
2023-02-04T06:30:31.201Z,5.41
2023-02-04T06:33:07.924Z,5.39
2023-02-04T06:35:35.581Z,5.41
2023-02-04T06:38:10.879Z,5.40
2023-02-04T06:40:40.907Z,5.38
2023-02-04T06:43:10.553Z,5.42
2023-02-04T06:45:48.133Z,5.41
2023-02-04T06:48:29.297Z,5.38
2023-02-04T06:51:13.173Z,5.39
2023-02-04T06:53:46.165Z,5.40
2023-02-04T06:56:16.671Z,5.37
2023-02-04T06:58:47.054Z,5.37
2023-02-04T07:01:16.077Z,5.36
2023-02-04T07:03:45.761Z,5.33
2023-02-04T07:06:14.420Z,5.32
2023-02-04T07:11:30.658Z,5.32
2023-02-04T07:14:02.956Z,5.32
2023-02-04T07:16:38.806Z,5.29
2023-02-04T07:19:08.176Z,5.31
2023-02-04T07:22:00.928Z,5.32
2023-02-04T07:24:34.461Z,5.34
2023-02-04T07:27:07.938Z,5.35
2023-02-04T07:29:45.174Z,5.36
2023-02-04T07:32:16.581Z,5.37
2023-02-04T07:34:51.824Z,5.38
2023-02-04T07:37:21.463Z,5.40
2023-02-04T07:39:57.011Z,5.42
2023-02-04T07:42:30.961Z,5.43
2023-02-04T07:45:13.359Z,5.47
2023-02-04T07:47:41.228Z,5.50
2023-02-04T07:50:13.820Z,5.50
2023-02-04T07:52:49.376Z,5.52
2023-02-04T07:55:19.210Z,5.55
2023-02-04T07:57:49.740Z,5.53
2023-02-04T08:00:29.067Z,5.60
2023-02-04T08:03:03.441Z,5.61
2023-02-04T08:05:38.838Z,5.62
2023-02-04T08:08:14.294Z,5.63
2023-02-04T08:10:43.146Z,5.65
2023-02-04T08:13:15.814Z,5.70
2023-02-04T08:15:49.049Z,5.72
2023-02-04T08:18:19.475Z,5.78
2023-02-04T08:20:49.222Z,5.78
2023-02-04T08:23:20.947Z,5.84
2023-02-04T08:25:51.592Z,5.90
2023-02-04T08:28:31.910Z,5.95
2023-02-04T08:31:02.241Z,5.96
2023-02-04T08:33:31.142Z,6.02
2023-02-04T08:36:01.633Z,6.05
2023-02-04T08:38:43.334Z,6.07
2023-02-04T08:41:26.518Z,6.09
2023-02-04T08:44:00.821Z,6.15
2023-02-04T08:46:42.592Z,6.15
2023-02-04T08:49:31.661Z,6.18
2023-02-04T08:52:00.682Z,6.20
2023-02-04T08:54:31.990Z,6.22
2023-02-04T08:57:05.281Z,6.24
2023-02-04T08:59:44.919Z,6.30
2023-02-04T09:02:13.868Z,6.34
2023-02-04T09:04:52.695Z,6.40
2023-02-04T09:07:26.282Z,6.46
2023-02-04T09:09:58.793Z,6.51
2023-02-04T09:12:39.239Z,6.58
2023-02-04T09:15:10.248Z,6.60
2023-02-04T09:17:41.071Z,6.64
2023-02-04T09:20:25.543Z,6.69
2023-02-04T09:22:57.319Z,6.74
2023-02-04T09:25:27.824Z,6.80
2023-02-04T09:28:07.640Z,6.87
2023-02-04T09:30:41.723Z,6.93
2023-02-04T09:33:22.130Z,6.99
2023-02-04T09:36:37.221Z,7.08
2023-02-04T09:39:19.413Z,7.13
2023-02-04T09:41:49.786Z,7.20
2023-02-04T09:44:33.356Z,7.28
2023-02-04T09:47:08.642Z,7.35
2023-02-04T09:49:44.561Z,7.42
2023-02-04T09:52:19.566Z,7.49
2023-02-04T09:55:01.550Z,7.48
2023-02-04T09:57:50.607Z,7.53
2023-02-04T10:00:28.451Z,7.59
2023-02-04T10:03:02.574Z,7.63
2023-02-04T10:05:37.574Z,7.71
2023-02-04T10:08:09.666Z,7.75
2023-02-04T10:10:48.554Z,7.80
2023-02-04T10:13:44.875Z,7.87
2023-02-04T10:16:36.281Z,7.95
2023-02-04T10:19:13.037Z,7.96
2023-02-04T10:21:48.846Z,7.99
2023-02-04T10:24:38.984Z,7.99
2023-02-04T10:27:37.630Z,8.01
2023-02-04T10:30:49.590Z,8.08
2023-02-04T10:36:44.477Z,8.38
2023-02-04T10:39:23.351Z,8.62
2023-02-04T10:42:05.390Z,8.83
2023-02-04T10:44:39.447Z,9.01
2023-02-04T10:47:31.548Z,9.19
2023-02-04T10:50:19.146Z,9.46
2023-02-04T10:53:18.121Z,9.63
2023-02-04T10:56:01.039Z,9.92
2023-02-04T10:58:46.031Z,10.08
2023-02-04T11:01:28.936Z,10.49
2023-02-04T11:03:58.244Z,11.00
2023-02-04T11:06:35.280Z,11.23
2023-02-04T11:09:04.292Z,11.21
2023-02-04T11:11:49.556Z,11.26
2023-02-04T11:14:39.463Z,11.32
2023-02-04T11:17:36.290Z,11.36
2023-02-04T11:20:33.216Z,11.38
2023-02-04T11:23:29.589Z,11.42
2023-02-04T11:26:41.314Z,11.53
2023-02-04T11:29:40.138Z,11.63
2023-02-04T11:32:45.419Z,11.76
2023-02-04T11:35:35.462Z,11.80
2023-02-04T11:38:05.272Z,11.83
2023-02-04T11:40:46.429Z,11.80
2023-02-04T11:43:30.654Z,11.66
2023-02-04T11:46:18.500Z,11.61
2023-02-04T11:49:00.095Z,11.74
2023-02-04T11:52:01.571Z,12.04
2023-02-04T11:54:32.134Z,12.58
2023-02-04T11:57:20.570Z,12.90
2023-02-04T12:00:09.119Z,12.87
2023-02-04T12:03:31.992Z,12.73
2023-02-04T12:06:05.496Z,12.59
2023-02-04T12:08:39.213Z,12.48
2023-02-04T12:11:27.865Z,12.41
2023-02-04T12:14:26.054Z,12.35
2023-02-04T12:17:04.663Z,12.33
2023-02-04T12:19:42.827Z,12.24
2023-02-04T12:22:19.784Z,12.10
2023-02-04T12:30:22.257Z,11.78
2023-02-04T12:32:50.898Z,11.83
2023-02-04T12:35:26.748Z,11.95
2023-02-04T12:37:54.181Z,12.08
2023-02-04T12:40:24.531Z,12.09
2023-02-04T12:42:53.645Z,12.18
2023-02-04T12:45:27.519Z,12.20
2023-02-04T12:47:57.554Z,12.08
2023-02-04T12:50:28.696Z,11.93
2023-02-04T12:53:20.245Z,11.80
2023-02-04T12:56:02.372Z,11.64
2023-02-04T12:58:32.317Z,11.54
2023-02-04T13:04:01.669Z,11.80
2023-02-04T13:06:34.277Z,11.93
2023-02-04T13:09:09.531Z,12.04
2023-02-04T13:11:42.925Z,12.08
2023-02-04T13:17:03.447Z,12.28
2023-02-04T13:20:13.309Z,12.20
2023-02-04T13:23:02.115Z,12.14
2023-02-04T13:25:38.451Z,12.07
2023-02-04T13:28:43.059Z,11.96
2023-02-04T13:31:11.161Z,11.82
2023-02-04T13:33:42.396Z,11.74
2023-02-04T13:36:18.640Z,11.67
2023-02-04T13:44:48.118Z,11.74
2023-02-04T13:47:18.594Z,11.81
2023-02-04T13:50:07.233Z,11.77
2023-02-04T13:52:36.381Z,11.67
2023-02-04T13:55:56.459Z,11.61
2023-02-04T13:58:38.270Z,11.58
2023-02-04T14:01:23.542Z,11.54
2023-02-04T14:04:26.063Z,11.53
2023-02-04T14:10:23.098Z,11.43
2023-02-04T14:20:08.799Z,11.14
2023-02-04T14:34:22.588Z,10.86
2023-02-04T14:39:40.659Z,10.73
2023-02-04T14:42:42.740Z,10.65
2023-02-04T14:45:27.273Z,10.58
2023-02-04T14:54:39.632Z,10.56
2023-02-04T14:57:25.802Z,10.63
2023-02-04T15:00:09.017Z,10.73
2023-02-04T15:03:18.144Z,10.76
2023-02-04T15:05:48.865Z,10.78
2023-02-04T15:08:37.202Z,10.75
2023-02-04T15:11:54.058Z,10.71
2023-02-04T15:14:55.789Z,10.57
2023-02-04T15:17:54.750Z,10.47
2023-02-04T15:24:06.560Z,10.29
2023-02-04T15:27:02.507Z,10.22
2023-02-04T15:30:53.018Z,10.16
2023-02-04T15:35:13.777Z,10.08
2023-02-04T15:45:49.152Z,9.78
2023-02-04T15:48:50.461Z,9.75
2023-02-04T15:51:21.487Z,9.75
2023-02-04T15:53:50.565Z,9.69
2023-02-04T15:59:17.817Z,9.61
2023-02-04T16:01:52.080Z,9.57
2023-02-04T16:07:45.881Z,9.49
2023-02-04T16:10:25.256Z,9.46
2023-02-04T16:16:01.403Z,9.45
2023-02-04T16:18:32.353Z,9.43
2023-02-04T16:21:04.873Z,9.43
2023-02-04T16:23:35.478Z,9.41
2023-02-04T16:26:12.279Z,9.40
2023-02-04T16:28:40.477Z,9.39
2023-02-04T16:31:23.388Z,9.39
2023-02-04T16:33:57.253Z,9.37
2023-02-04T16:36:27.144Z,9.37
2023-02-04T16:38:59.700Z,9.37
2023-02-04T16:41:40.708Z,9.33
2023-02-04T16:44:24.038Z,9.31
2023-02-04T16:47:02.958Z,9.30
2023-02-04T16:49:49.696Z,9.30
2023-02-04T16:52:19.801Z,9.26
2023-02-04T16:54:48.856Z,9.27
2023-02-04T16:57:22.285Z,9.26
2023-02-04T16:59:52.881Z,9.24
2023-02-04T17:02:33.851Z,9.24
2023-02-04T17:05:02.669Z,9.24
2023-02-04T17:07:39.928Z,9.25
2023-02-04T17:13:04.391Z,9.23
2023-02-04T17:15:41.609Z,9.22
2023-02-04T17:18:30.076Z,9.20
2023-02-04T17:21:17.818Z,9.17
2023-02-04T17:23:57.634Z,9.17
2023-02-04T17:26:52.761Z,9.17
2023-02-04T17:29:41.929Z,9.17
2023-02-04T17:32:19.847Z,9.17
2023-02-04T17:34:58.631Z,9.17
2023-02-04T17:37:31.475Z,9.16
2023-02-04T17:40:14.750Z,9.16
2023-02-04T17:42:48.294Z,9.14
2023-02-04T17:48:11.214Z,9.14
2023-02-04T17:50:46.839Z,9.14
2023-02-04T17:53:25.471Z,9.13
2023-02-04T17:56:05.392Z,9.11
2023-02-04T18:01:27.031Z,9.11
2023-02-04T18:04:05.205Z,9.11
2023-02-04T18:06:55.708Z,9.09
2023-02-04T18:12:19.089Z,9.09
2023-02-04T18:14:59.985Z,9.11
2023-02-04T18:17:53.504Z,9.09
2023-02-04T18:20:26.375Z,9.09
2023-02-04T18:23:06.473Z,9.08
2023-02-04T18:25:44.820Z,9.05
2023-02-04T18:28:51.333Z,9.02
2023-02-04T18:32:05.100Z,8.95
2023-02-04T18:44:12.729Z,8.65
2023-02-04T18:46:50.296Z,8.54
2023-02-04T18:49:55.077Z,8.47
2023-02-04T18:52:54.505Z,8.38
2023-02-04T18:58:53.402Z,8.23
2023-02-04T19:01:48.465Z,8.18
2023-02-04T19:07:46.653Z,7.97
2023-02-04T19:10:42.094Z,7.84
2023-02-04T19:16:42.967Z,7.72
2023-02-04T19:20:17.707Z,7.67
2023-02-04T19:26:33.791Z,7.57
2023-02-04T19:29:44.705Z,7.50
2023-02-04T19:33:05.416Z,7.46
2023-02-04T19:36:07.213Z,7.44
2023-02-04T19:39:12.555Z,7.41
2023-02-04T19:44:47.429Z,7.40
2023-02-04T19:47:45.436Z,7.38
2023-02-04T19:53:30.201Z,7.33
2023-02-04T19:56:11.690Z,7.30
2023-02-04T19:58:50.353Z,7.29
2023-02-04T20:01:23.334Z,7.28
2023-02-04T20:03:53.304Z,7.29
2023-02-04T20:06:45.865Z,7.30
2023-02-04T20:09:38.707Z,7.31
2023-02-04T20:12:29.503Z,7.30
2023-02-04T20:15:13.749Z,7.29
2023-02-04T20:17:51.711Z,7.29
2023-02-04T20:20:29.632Z,7.27
2023-02-04T20:23:31.618Z,7.25
2023-02-04T20:26:03.939Z,7.22
2023-02-04T20:28:57.929Z,7.16
2023-02-04T20:34:35.768Z,7.12
2023-02-04T20:37:09.614Z,7.12
2023-02-04T20:40:01.062Z,7.10
2023-02-04T20:43:05.979Z,7.12
2023-02-04T20:46:07.623Z,7.11
2023-02-04T20:48:49.111Z,7.11
2023-02-04T20:51:29.989Z,7.10
2023-02-04T20:54:04.427Z,7.09
2023-02-04T20:56:48.256Z,7.06
2023-02-04T20:59:36.895Z,7.07
2023-02-04T21:02:28.893Z,7.09
2023-02-04T21:04:57.210Z,7.07
2023-02-04T21:07:51.308Z,7.09
2023-02-04T21:10:39.006Z,7.11
2023-02-04T21:14:21.503Z,7.06
2023-02-04T21:16:59.999Z,7.07
2023-02-04T21:19:50.301Z,7.03
2023-02-04T21:22:34.460Z,7.00
2023-02-04T21:25:15.128Z,6.98
2023-02-04T21:28:14.565Z,6.97
2023-02-04T21:31:00.727Z,6.92
2023-02-04T21:39:28.057Z,6.89
2023-02-04T21:42:12.431Z,6.85
2023-02-04T21:45:18.007Z,6.89
2023-02-04T21:48:26.961Z,6.92
2023-02-04T21:51:50.669Z,6.91
2023-02-04T21:54:29.342Z,6.89
2023-02-04T21:57:10.603Z,6.88
2023-02-04T22:00:13.543Z,6.86
2023-02-04T22:02:52.836Z,6.89
2023-02-04T22:09:03.254Z,6.88
2023-02-04T22:11:41.903Z,6.87
2023-02-04T22:14:10.337Z,6.88
2023-02-04T22:16:50.563Z,6.88
2023-02-04T22:19:40.424Z,6.88
2023-02-04T22:22:11.220Z,6.90
2023-02-04T22:24:55.498Z,6.91
2023-02-04T22:27:30.552Z,6.92
2023-02-04T22:30:24.641Z,6.90
2023-02-04T22:33:02.044Z,6.90
2023-02-04T22:35:43.029Z,6.89
2023-02-04T22:38:25.593Z,6.88
2023-02-04T22:40:59.620Z,6.88
2023-02-04T22:43:32.456Z,6.88
2023-02-04T22:46:02.661Z,6.88
2023-02-04T22:48:34.244Z,6.87
2023-02-04T22:51:06.777Z,6.93
2023-02-04T22:53:46.287Z,6.92
2023-02-04T22:56:15.163Z,6.92
2023-02-04T23:02:20.353Z,6.93
2023-02-04T23:05:03.065Z,6.96
2023-02-04T23:07:32.749Z,6.91
2023-02-04T23:10:18.234Z,6.94
2023-02-04T23:12:56.623Z,6.91
2023-02-04T23:15:40.298Z,6.92
2023-02-04T23:18:12.272Z,6.91
2023-02-04T23:20:41.381Z,6.91
2023-02-04T23:23:25.741Z,6.91
2023-02-04T23:25:58.357Z,6.92
2023-02-04T23:28:40.547Z,6.93
2023-02-04T23:31:30.267Z,6.92
2023-02-04T23:34:06.736Z,6.92
2023-02-04T23:42:05.103Z,6.91
2023-02-04T23:44:35.394Z,6.91
2023-02-04T23:47:06.158Z,6.87
2023-02-04T23:49:37.773Z,6.88
2023-02-04T23:52:17.430Z,6.87
2023-02-04T23:54:49.949Z,6.84
2023-02-04T23:57:26.064Z,6.84
